Mauriceville, Texas
Current Conditions -  °F | °C
As of 5:35 PM on Friday 19 Dec 2014 (Local Time) from KORG Reporting Station
Drizzle Drizzle  
Wind Chill: 54°   Ceiling: 500
Heat Index: 54°   Visibility: 10mi
Dew Point: 53°   Wind: 9mph
Humidity: 97%   Direction: 10°N
Pressure: 30.04"   Gusts: NA
Location:  30.2°N, 93.87°W
Report Text: KORG 192335Z AUTO 01008KT 10SM DZ OVC005 12/12 A3004 RMK AO2 P0001 T01200116
Loading
Personal Weather Stations






























Interactive Weather Map New forecast layout! Learn more

10-Day Weather Forecast

Advertisements
Track Severe Weather on mobile